createdAt,value
2018-12-07T00:00:22.715Z,11.38
2018-12-07T00:02:58.036Z,11.41
2018-12-07T00:05:32.072Z,10.83
2018-12-07T00:08:06.184Z,11.15
2018-12-07T00:10:40.605Z,11.03
2018-12-07T00:13:11.440Z,11.03
2018-12-07T00:15:42.286Z,11.15
2018-12-07T00:18:19.149Z,11.22
2018-12-07T00:20:57.173Z,11.18
2018-12-07T00:23:29.196Z,11.19
2018-12-07T00:26:00.338Z,11.25
2018-12-07T00:28:32.274Z,11.27
2018-12-07T00:31:03.173Z,11.34
2018-12-07T00:33:34.313Z,11.32
2018-12-07T00:36:05.198Z,11.37
2018-12-07T00:38:36.221Z,11.33
2018-12-07T00:41:08.506Z,11.44
2018-12-07T00:43:41.393Z,11.49
2018-12-07T00:46:15.428Z,11.50
2018-12-07T00:48:46.706Z,11.41
2018-12-07T00:51:17.473Z,11.35
2018-12-07T00:53:48.355Z,11.35
2018-12-07T00:56:20.549Z,11.37
2018-12-07T00:58:51.582Z,11.36
2018-12-07T01:01:22.744Z,11.37
2018-12-07T01:03:53.908Z,11.39
2018-12-07T01:06:24.988Z,11.36
2018-12-07T01:08:57.423Z,11.49
2018-12-07T01:11:28.629Z,11.43
2018-12-07T01:13:59.652Z,11.40
2018-12-07T01:16:30.630Z,11.36
2018-12-07T01:19:03.139Z,11.23
2018-12-07T01:21:34.079Z,11.21
2018-12-07T01:24:05.017Z,11.24
2018-12-07T01:26:35.932Z,11.23
2018-12-07T01:29:07.034Z,11.06
2018-12-07T01:31:38.300Z,11.08
2018-12-07T01:34:09.126Z,10.99
2018-12-07T01:36:39.930Z,11.33
2018-12-07T01:39:10.710Z,11.23
2018-12-07T01:41:41.753Z,11.26
2018-12-07T01:44:12.537Z,11.23
2018-12-07T01:46:48.912Z,11.35
2018-12-07T01:49:26.861Z,11.37
2018-12-07T01:52:11.254Z,11.44
2018-12-07T01:54:42.457Z,11.37
2018-12-07T01:57:14.953Z,11.51
2018-12-07T01:59:46.003Z,11.52
2018-12-07T02:02:16.889Z,11.47
2018-12-07T02:04:53.580Z,11.52
2018-12-07T02:07:36.810Z,11.48
2018-12-07T02:10:13.346Z,11.45
2018-12-07T02:12:46.263Z,11.30
2018-12-07T02:15:23.406Z,11.44
2018-12-07T02:18:00.537Z,11.45
2018-12-07T02:20:36.556Z,11.53
2018-12-07T02:23:13.073Z,11.60
2018-12-07T02:25:49.155Z,11.70
2018-12-07T02:28:24.398Z,11.59
2018-12-07T02:30:58.597Z,11.58
2018-12-07T02:33:33.857Z,11.63
2018-12-07T02:36:09.226Z,11.59
2018-12-07T02:38:43.853Z,11.52
2018-12-07T02:41:17.998Z,11.52
2018-12-07T02:43:54.157Z,11.57
2018-12-07T02:46:25.808Z,11.65
2018-12-07T02:48:58.862Z,11.57
2018-12-07T02:51:35.275Z,11.54
2018-12-07T02:54:11.231Z,11.48
2018-12-07T02:56:47.482Z,11.51
2018-12-07T02:59:22.868Z,11.55
2018-12-07T03:02:01.120Z,11.43
2018-12-07T03:04:38.047Z,11.44
2018-12-07T03:07:19.540Z,11.42
2018-12-07T03:09:54.276Z,11.37
2018-12-07T03:12:25.552Z,11.42
2018-12-07T03:14:56.418Z,11.42
2018-12-07T03:17:33.141Z,11.49
2018-12-07T03:20:04.632Z,11.55
2018-12-07T03:25:32.562Z,11.49
2018-12-07T03:28:04.724Z,11.36
2018-12-07T03:30:38.776Z,11.41
2018-12-07T03:33:13.040Z,11.40
2018-12-07T03:35:47.582Z,11.38
2018-12-07T03:38:24.050Z,11.32
2018-12-07T03:40:55.229Z,11.37
2018-12-07T03:43:26.410Z,11.33
2018-12-07T03:46:01.182Z,11.38
2018-12-07T03:48:41.549Z,11.35
2018-12-07T03:51:12.371Z,11.37
2018-12-07T03:53:43.194Z,11.44
2018-12-07T03:56:14.185Z,11.41
2018-12-07T04:01:41.220Z,11.45
2018-12-07T04:04:12.127Z,11.44
2018-12-07T04:06:46.233Z,11.44
2018-12-07T04:09:18.249Z,11.51
2018-12-07T04:11:54.822Z,11.49
2018-12-07T04:14:28.895Z,11.44
2018-12-07T04:17:00.124Z,11.63
2018-12-07T04:19:31.307Z,11.61
2018-12-07T04:22:04.019Z,11.54
2018-12-07T04:24:35.145Z,11.53
2018-12-07T04:27:06.153Z,11.51
2018-12-07T04:29:37.156Z,11.49
2018-12-07T04:32:08.701Z,11.55
2018-12-07T04:34:40.533Z,11.49
2018-12-07T04:37:11.574Z,11.42
2018-12-07T04:39:42.540Z,11.36
2018-12-07T04:42:13.453Z,11.43
2018-12-07T04:44:44.405Z,11.48
2018-12-07T04:47:15.421Z,11.55
2018-12-07T04:49:46.495Z,11.54
2018-12-07T04:55:24.156Z,11.70
2018-12-07T04:57:55.088Z,11.63
2018-12-07T05:00:26.176Z,11.57
2018-12-07T05:02:57.309Z,11.56
2018-12-07T05:05:29.831Z,11.53
2018-12-07T05:08:01.093Z,11.52
2018-12-07T05:10:33.574Z,11.49
2018-12-07T05:13:04.540Z,11.58
2018-12-07T05:15:35.647Z,11.56
2018-12-07T05:18:06.651Z,11.49
2018-12-07T05:20:38.706Z,11.57
2018-12-07T05:23:09.649Z,11.56
2018-12-07T05:25:40.525Z,11.55
2018-12-07T05:28:11.429Z,11.58
2018-12-07T05:30:42.274Z,11.70
2018-12-07T05:33:13.508Z,11.72
2018-12-07T05:35:44.415Z,11.69
2018-12-07T05:38:15.843Z,11.71
2018-12-07T05:43:13.273Z,11.69
2018-12-07T05:45:44.217Z,11.71
2018-12-07T05:48:31.213Z,11.84
2018-12-07T05:51:03.492Z,11.85
2018-12-07T05:53:34.972Z,11.87
2018-12-07T05:56:05.948Z,11.79
2018-12-07T05:58:37.066Z,11.80
2018-12-07T06:01:25.358Z,11.69
2018-12-07T06:03:57.447Z,11.66
2018-12-07T06:06:28.603Z,11.58
2018-12-07T06:09:04.319Z,11.55
2018-12-07T06:11:38.119Z,11.50
2018-12-07T06:14:12.558Z,11.44
2018-12-07T06:16:44.608Z,11.46
2018-12-07T06:19:21.276Z,11.60
2018-12-07T06:21:52.176Z,11.59
2018-12-07T06:24:26.951Z,11.56
2018-12-07T06:26:59.648Z,11.55
2018-12-07T06:29:34.808Z,11.36
2018-12-07T06:32:07.639Z,11.28
2018-12-07T06:34:41.299Z,11.36
2018-12-07T06:37:15.868Z,11.43
2018-12-07T06:39:52.276Z,11.62
2018-12-07T06:42:27.897Z,11.57
2018-12-07T06:45:02.672Z,11.50
2018-12-07T06:47:39.444Z,11.53
2018-12-07T06:50:15.566Z,11.52
2018-12-07T06:52:50.442Z,11.41
2018-12-07T06:55:24.676Z,11.40
2018-12-07T06:58:00.855Z,11.49
2018-12-07T07:00:37.635Z,11.60
2018-12-07T07:03:09.645Z,11.51
2018-12-07T07:05:46.098Z,11.54
2018-12-07T07:08:18.624Z,11.46
2018-12-07T07:10:52.834Z,11.48
2018-12-07T07:13:29.345Z,11.45
2018-12-07T07:16:00.296Z,11.47
2018-12-07T07:18:34.788Z,11.53
2018-12-07T07:21:09.745Z,11.36
2018-12-07T07:23:45.895Z,11.32
2018-12-07T07:26:21.042Z,11.26
2018-12-07T07:28:52.729Z,11.34
2018-12-07T07:31:29.076Z,11.28
2018-12-07T07:34:06.314Z,11.24
2018-12-07T07:36:38.346Z,11.21
2018-12-07T07:39:09.612Z,11.25
2018-12-07T07:41:43.238Z,11.22
2018-12-07T07:44:14.037Z,11.27
2018-12-07T07:46:45.120Z,11.24
2018-12-07T07:49:22.042Z,11.36
2018-12-07T07:51:58.881Z,11.38
2018-12-07T07:54:34.989Z,11.40
2018-12-07T07:57:06.660Z,11.64
2018-12-07T07:59:37.655Z,11.70
2018-12-07T08:02:09.721Z,11.63
2018-12-07T08:04:46.357Z,11.64
2018-12-07T08:07:20.787Z,11.73
2018-12-07T08:09:55.314Z,11.77
2018-12-07T08:12:31.611Z,11.80
2018-12-07T08:15:06.273Z,11.81
2018-12-07T08:17:45.668Z,11.81
2018-12-07T08:20:19.140Z,11.85
2018-12-07T08:22:53.449Z,11.86
2018-12-07T08:25:27.543Z,11.93
2018-12-07T08:28:02.050Z,11.93
2018-12-07T08:30:36.713Z,11.96
2018-12-07T08:33:12.439Z,11.97
2018-12-07T08:35:47.742Z,12.03
2018-12-07T08:38:22.846Z,12.04
2018-12-07T08:41:02.947Z,12.08
2018-12-07T08:46:43.486Z,12.21
2018-12-07T08:49:18.049Z,12.33
2018-12-07T08:51:50.060Z,12.41
2018-12-07T08:54:22.397Z,12.41
2018-12-07T08:56:56.570Z,12.42
2018-12-07T08:59:31.767Z,12.41
2018-12-07T09:02:04.401Z,12.47
2018-12-07T09:04:39.227Z,12.41
2018-12-07T09:07:13.352Z,12.38
2018-12-07T09:09:47.561Z,12.54
2018-12-07T09:12:22.551Z,12.54
2018-12-07T09:14:54.976Z,12.51
2018-12-07T09:17:26.140Z,12.45
2018-12-07T09:19:57.994Z,12.45
2018-12-07T09:22:30.322Z,12.41
2018-12-07T09:25:02.277Z,11.94
2018-12-07T09:27:36.120Z,12.45
2018-12-07T09:30:07.918Z,12.34
2018-12-07T09:32:39.032Z,12.44
2018-12-07T09:35:13.681Z,12.38
2018-12-07T09:37:47.771Z,12.19
2018-12-07T09:40:25.155Z,12.42
2018-12-07T09:42:58.899Z,12.39
2018-12-07T09:45:36.868Z,12.36
2018-12-07T09:48:13.171Z,12.34
2018-12-07T09:50:49.704Z,12.38
2018-12-07T09:53:26.753Z,12.35
2018-12-07T09:55:58.682Z,12.34
2018-12-07T09:58:32.730Z,12.31
2018-12-07T10:01:27.509Z,12.41
2018-12-07T10:04:16.685Z,12.43
2018-12-07T10:07:03.216Z,12.30
2018-12-07T10:09:47.947Z,12.35
2018-12-07T10:15:41.887Z,12.38
2018-12-07T10:18:35.430Z,12.41
2018-12-07T10:32:33.783Z,12.51
2018-12-07T10:35:24.337Z,12.52
2018-12-07T10:38:13.354Z,12.54
2018-12-07T10:41:03.557Z,12.51
2018-12-07T10:43:49.110Z,12.60
2018-12-07T10:46:45.558Z,12.64
2018-12-07T10:49:18.113Z,12.74
2018-12-07T10:51:52.344Z,12.78
2018-12-07T10:57:16.921Z,12.87
2018-12-07T10:59:57.634Z,12.90
2018-12-07T11:02:38.160Z,12.95
2018-12-07T11:05:36.593Z,13.06
2018-12-07T11:08:29.697Z,13.13
2018-12-07T11:11:13.729Z,13.10
2018-12-07T11:20:52.803Z,13.05
2018-12-07T11:23:30.239Z,12.87
2018-12-07T11:26:11.918Z,12.94
2018-12-07T11:28:54.249Z,12.87
2018-12-07T11:31:32.156Z,12.82
2018-12-07T11:34:11.087Z,12.82
2018-12-07T11:36:47.031Z,12.87
2018-12-07T11:39:24.206Z,12.93
2018-12-07T11:42:00.794Z,12.80
2018-12-07T11:44:36.582Z,12.80
2018-12-07T11:47:12.889Z,12.73
2018-12-07T11:49:46.974Z,12.64
2018-12-07T11:52:21.017Z,12.65
2018-12-07T11:54:55.345Z,12.65
2018-12-07T11:57:29.875Z,12.67
2018-12-07T12:00:05.504Z,12.74
2018-12-07T12:02:37.491Z,12.76
2018-12-07T12:05:30.008Z,12.67
2018-12-07T12:08:08.097Z,12.60
2018-12-07T12:10:40.506Z,12.57
2018-12-07T12:13:12.772Z,12.50
2018-12-07T12:15:45.151Z,12.53
2018-12-07T12:18:19.968Z,12.49
2018-12-07T12:20:52.551Z,12.52
2018-12-07T12:23:23.663Z,12.53
2018-12-07T12:25:54.815Z,12.56
2018-12-07T12:28:31.257Z,12.48
2018-12-07T12:31:10.419Z,12.46
2018-12-07T12:33:41.371Z,12.48
2018-12-07T12:36:16.991Z,12.51
2018-12-07T12:38:45.527Z,12.54
2018-12-07T12:41:16.567Z,12.54
2018-12-07T12:43:48.424Z,12.59
2018-12-07T12:46:19.352Z,12.60
2018-12-07T12:48:50.268Z,12.52
2018-12-07T12:51:24.719Z,12.46
2018-12-07T12:54:01.064Z,12.45
2018-12-07T12:56:41.206Z,12.45
2018-12-07T12:59:17.804Z,12.46
2018-12-07T13:01:55.877Z,12.39
2018-12-07T13:04:30.101Z,12.29
2018-12-07T13:07:05.978Z,12.40
2018-12-07T13:09:42.016Z,12.32
2018-12-07T13:13:06.471Z,12.24
2018-12-07T13:15:47.739Z,12.10
2018-12-07T13:21:30.502Z,11.63
2018-12-07T13:24:15.388Z,11.45
2018-12-07T13:26:50.753Z,11.24
2018-12-07T13:29:41.302Z,11.18
2018-12-07T13:32:21.384Z,11.10
2018-12-07T13:35:00.443Z,11.09
2018-12-07T13:40:48.726Z,11.12
2018-12-07T13:43:25.547Z,11.11
2018-12-07T13:48:51.757Z,11.13
2018-12-07T13:51:42.975Z,11.21
2018-12-07T13:54:32.848Z,11.19
2018-12-07T14:00:09.340Z,11.12
2018-12-07T14:02:43.466Z,11.15
2018-12-07T14:05:22.019Z,11.26
2018-12-07T14:17:23.204Z,11.74
2018-12-07T14:22:54.626Z,11.95
2018-12-07T14:25:26.000Z,11.97
2018-12-07T14:28:12.482Z,11.92
2018-12-07T14:30:58.123Z,11.96
2018-12-07T14:33:29.363Z,11.92
2018-12-07T14:36:02.795Z,11.85
2018-12-07T14:38:49.508Z,11.81
2018-12-07T14:41:27.374Z,11.88
2018-12-07T14:44:07.724Z,11.83
2018-12-07T14:46:51.382Z,11.84
2018-12-07T14:49:27.242Z,11.83
2018-12-07T14:52:19.723Z,11.79
2018-12-07T14:54:52.157Z,11.75
2018-12-07T14:57:24.419Z,11.71
2018-12-07T14:59:58.104Z,11.65
2018-12-07T15:02:39.244Z,11.64
2018-12-07T15:11:19.747Z,11.70
2018-12-07T15:13:50.919Z,11.75
2018-12-07T15:16:24.581Z,11.69
2018-12-07T15:18:59.722Z,11.63
2018-12-07T15:21:31.361Z,11.68
2018-12-07T15:27:11.101Z,11.66
2018-12-07T15:32:45.646Z,11.60
2018-12-07T15:35:26.696Z,11.56
2018-12-07T15:38:22.790Z,11.55
2018-12-07T15:41:56.818Z,11.54
2018-12-07T15:54:51.295Z,11.53
2018-12-07T15:57:33.375Z,11.52
2018-12-07T16:00:12.925Z,11.48
2018-12-07T16:02:51.461Z,11.48
2018-12-07T16:05:29.640Z,11.41
2018-12-07T16:11:05.762Z,11.33
2018-12-07T16:19:40.129Z,11.29
2018-12-07T16:22:22.984Z,11.32
2018-12-07T16:24:56.810Z,11.37
2018-12-07T16:27:28.469Z,11.34
2018-12-07T16:30:01.307Z,11.33
2018-12-07T16:32:33.826Z,11.36
2018-12-07T16:35:05.240Z,11.39
2018-12-07T16:37:37.170Z,11.41
2018-12-07T16:40:11.070Z,11.39
2018-12-07T16:42:42.841Z,11.37
2018-12-07T16:45:14.150Z,11.41
2018-12-07T16:47:46.477Z,11.41
2018-12-07T16:50:18.182Z,11.44
2018-12-07T16:52:49.687Z,11.45
2018-12-07T16:55:20.891Z,11.42
2018-12-07T16:57:53.230Z,11.47
2018-12-07T17:00:24.714Z,11.43
2018-12-07T17:02:55.841Z,11.44
2018-12-07T17:05:32.456Z,11.36
2018-12-07T17:08:09.022Z,11.32
2018-12-07T17:10:41.200Z,11.35
2018-12-07T17:13:17.739Z,11.34
2018-12-07T17:15:54.461Z,11.29
2018-12-07T17:18:31.544Z,11.34
2018-12-07T17:21:02.706Z,11.41
2018-12-07T17:23:37.936Z,11.34
2018-12-07T17:26:10.073Z,11.29
2018-12-07T17:28:43.587Z,11.27
2018-12-07T17:31:18.282Z,11.37
2018-12-07T17:33:53.402Z,11.34
2018-12-07T17:36:27.836Z,11.40
2018-12-07T17:39:06.561Z,11.40
2018-12-07T17:41:41.449Z,11.36
2018-12-07T17:44:17.522Z,11.49
2018-12-07T17:46:50.542Z,11.44
2018-12-07T17:49:25.047Z,11.40
2018-12-07T17:51:56.233Z,11.41
2018-12-07T17:54:31.030Z,11.41
2018-12-07T17:57:13.497Z,11.49
2018-12-07T17:59:50.179Z,11.50
2018-12-07T18:02:25.350Z,11.43
2018-12-07T18:05:01.395Z,11.44
2018-12-07T18:07:36.422Z,11.30
2018-12-07T18:10:11.241Z,11.30
2018-12-07T18:12:48.019Z,11.24
2018-12-07T18:15:20.664Z,11.23
2018-12-07T18:17:57.797Z,11.15
2018-12-07T18:20:32.152Z,10.65
2018-12-07T18:23:03.354Z,11.20
2018-12-07T18:25:34.829Z,11.14
2018-12-07T18:28:06.065Z,11.16
2018-12-07T18:30:40.762Z,11.17
2018-12-07T18:33:15.550Z,11.14
2018-12-07T18:36:01.572Z,11.18
2018-12-07T18:38:38.089Z,11.15
2018-12-07T18:41:11.456Z,11.14
2018-12-07T18:43:46.247Z,11.07
2018-12-07T18:46:23.462Z,11.05
2018-12-07T18:48:57.888Z,11.02
2018-12-07T18:51:38.632Z,10.98
2018-12-07T18:54:10.323Z,10.92
2018-12-07T18:56:41.896Z,10.85
2018-12-07T18:59:13.016Z,10.89
2018-12-07T19:01:55.977Z,10.83
2018-12-07T19:04:30.487Z,10.80
2018-12-07T19:07:03.394Z,10.79
2018-12-07T19:09:40.388Z,10.78
2018-12-07T19:12:24.358Z,10.77
2018-12-07T19:14:56.134Z,10.64
2018-12-07T19:17:27.761Z,10.83
2018-12-07T19:20:03.178Z,10.82
2018-12-07T19:22:38.253Z,10.78
2018-12-07T19:25:12.514Z,10.76
2018-12-07T19:27:45.772Z,10.75
2018-12-07T19:30:16.947Z,10.71
2018-12-07T19:32:51.344Z,10.70
2018-12-07T19:35:22.458Z,10.64
2018-12-07T19:37:54.760Z,10.66
2018-12-07T19:40:27.487Z,10.65
2018-12-07T19:43:00.286Z,10.63
2018-12-07T19:45:31.538Z,10.66
2018-12-07T19:48:02.851Z,10.71
2018-12-07T19:50:34.512Z,10.71
2018-12-07T19:53:05.633Z,10.75
2018-12-07T19:55:36.967Z,10.82
2018-12-07T19:58:08.677Z,10.72
2018-12-07T20:00:47.959Z,10.53
2018-12-07T20:03:18.973Z,10.31
2018-12-07T20:05:50.282Z,10.17
2018-12-07T20:08:21.979Z,10.10
2018-12-07T20:10:56.794Z,10.15
2018-12-07T20:13:28.328Z,10.15
2018-12-07T20:16:02.924Z,10.12
2018-12-07T20:18:34.707Z,10.22
2018-12-07T20:21:06.381Z,10.22
2018-12-07T20:23:37.965Z,10.15
2018-12-07T20:26:08.901Z,10.13
2018-12-07T20:28:40.276Z,10.14
2018-12-07T20:31:11.361Z,10.01
2018-12-07T20:33:43.399Z,9.42
2018-12-07T20:36:14.617Z,8.84
2018-12-07T20:38:45.893Z,8.61
2018-12-07T20:41:21.246Z,8.44
2018-12-07T20:43:53.914Z,8.26
2018-12-07T20:46:26.874Z,8.06
2018-12-07T20:49:03.714Z,7.97
2018-12-07T20:51:40.407Z,7.86
2018-12-07T20:54:12.025Z,7.84
2018-12-07T20:56:43.003Z,7.80
2018-12-07T20:59:14.487Z,7.83
2018-12-07T21:01:51.657Z,7.73
2018-12-07T21:04:32.052Z,7.72
2018-12-07T21:08:14.639Z,7.73
2018-12-07T21:11:50.877Z,7.62
2018-12-07T21:14:32.442Z,7.58
2018-12-07T21:17:18.420Z,7.55
2018-12-07T21:20:28.952Z,7.52
2018-12-07T21:23:03.356Z,7.49
2018-12-07T21:25:36.712Z,7.64
2018-12-07T21:28:08.829Z,7.72
2018-12-07T21:31:01.392Z,7.75
2018-12-07T21:33:49.444Z,7.80
2018-12-07T21:36:35.721Z,7.72
2018-12-07T21:39:11.337Z,7.69
2018-12-07T21:41:42.236Z,7.65
2018-12-07T21:44:13.404Z,7.62
2018-12-07T21:46:45.086Z,7.57
2018-12-07T21:49:16.379Z,7.68
2018-12-07T21:52:05.966Z,7.61
2018-12-07T21:54:37.404Z,7.66
2018-12-07T21:57:08.789Z,7.61
2018-12-07T21:59:40.283Z,7.58
2018-12-07T22:02:11.329Z,7.65
2018-12-07T22:04:42.452Z,7.67
2018-12-07T22:07:13.506Z,7.68
2018-12-07T22:09:44.454Z,7.70
2018-12-07T22:12:19.519Z,7.77
2018-12-07T22:14:54.058Z,7.76
2018-12-07T22:17:25.597Z,7.90
2018-12-07T22:19:57.414Z,7.97
2018-12-07T22:22:28.711Z,7.97
2018-12-07T22:25:00.055Z,8.00
2018-12-07T22:27:31.414Z,8.00
2018-12-07T22:30:04.243Z,8.02
2018-12-07T22:32:39.128Z,8.02
2018-12-07T22:35:22.085Z,8.00
2018-12-07T22:37:53.317Z,8.00
2018-12-07T22:40:24.821Z,7.97
2018-12-07T22:42:56.098Z,7.88
2018-12-07T22:45:27.523Z,7.88
2018-12-07T22:48:09.263Z,7.83
2018-12-07T22:50:56.052Z,7.85
2018-12-07T22:53:32.874Z,7.89
2018-12-07T22:56:06.199Z,7.84
2018-12-07T22:58:39.619Z,7.80
2018-12-07T23:01:15.699Z,7.88
2018-12-07T23:03:48.442Z,7.83
2018-12-07T23:06:22.575Z,7.79
2018-12-07T23:08:58.249Z,7.87
2018-12-07T23:11:34.842Z,7.84
2018-12-07T23:14:05.880Z,7.83
2018-12-07T23:16:48.265Z,7.86
2018-12-07T23:19:22.484Z,7.80
2018-12-07T23:21:56.536Z,7.77
2018-12-07T23:24:30.709Z,7.82
2018-12-07T23:27:04.739Z,7.86
2018-12-07T23:29:40.770Z,7.87
2018-12-07T23:32:15.559Z,7.89
2018-12-07T23:34:49.765Z,7.98
2018-12-07T23:37:21.830Z,7.97
2018-12-07T23:39:56.786Z,8.04
2018-12-07T23:42:28.828Z,8.01
2018-12-07T23:45:05.049Z,7.96
2018-12-07T23:47:38.022Z,7.93
2018-12-07T23:50:10.598Z,7.83
2018-12-07T23:52:45.482Z,7.77
2018-12-07T23:55:21.631Z,7.79
2018-12-07T23:57:55.682Z,7.83
